createdAt,value
2022-10-29T00:00:31.380Z,33.29
2022-10-29T00:01:31.449Z,33.29
2022-10-29T00:02:31.423Z,33.20
2022-10-29T00:03:31.383Z,33.59
2022-10-29T00:04:31.385Z,33.29
2022-10-29T00:05:31.384Z,33.49
2022-10-29T00:06:31.380Z,33.29
2022-10-29T00:07:31.381Z,33.11
2022-10-29T00:08:31.382Z,33.20
2022-10-29T00:09:31.384Z,33.20
2022-10-29T00:10:31.385Z,33.69
2022-10-29T00:11:31.384Z,33.49
2022-10-29T00:12:31.382Z,33.29
2022-10-29T00:13:31.383Z,33.11
2022-10-29T00:14:31.386Z,33.59
2022-10-29T00:15:31.385Z,33.20
2022-10-29T00:16:31.383Z,33.01
2022-10-29T00:17:31.383Z,33.11
2022-10-29T00:18:31.404Z,32.91
2022-10-29T00:19:31.386Z,33.20
2022-10-29T00:20:31.383Z,33.11
2022-10-29T00:21:31.387Z,33.29
2022-10-29T00:22:31.385Z,33.01
2022-10-29T00:23:31.385Z,33.11
2022-10-29T00:24:31.386Z,33.01
2022-10-29T00:25:31.387Z,33.11
2022-10-29T00:26:31.386Z,33.01
2022-10-29T00:27:31.386Z,33.59
2022-10-29T00:28:31.386Z,33.11
2022-10-29T00:29:31.387Z,32.91
2022-10-29T00:30:31.385Z,33.20
2022-10-29T00:31:31.473Z,33.69
2022-10-29T00:32:31.385Z,33.20
2022-10-29T00:33:31.387Z,33.69
2022-10-29T00:34:31.407Z,33.01
2022-10-29T00:35:31.390Z,33.59
2022-10-29T00:36:31.390Z,33.11
2022-10-29T00:37:31.388Z,33.01
2022-10-29T00:38:31.387Z,33.20
2022-10-29T00:39:31.388Z,33.01
2022-10-29T00:40:31.388Z,32.91
2022-10-29T00:41:31.392Z,33.29
2022-10-29T00:42:31.389Z,33.49
2022-10-29T00:43:31.389Z,33.29
2022-10-29T00:44:31.393Z,33.11
2022-10-29T00:45:31.391Z,33.49
2022-10-29T00:46:31.539Z,33.29
2022-10-29T00:47:31.390Z,33.20
2022-10-29T00:48:31.389Z,33.01
2022-10-29T00:49:31.390Z,33.29
2022-10-29T00:50:31.414Z,33.29
2022-10-29T00:51:31.392Z,33.20
2022-10-29T00:52:31.389Z,32.91
2022-10-29T00:53:31.392Z,33.01
2022-10-29T00:54:31.389Z,33.20
2022-10-29T00:55:31.393Z,33.29
2022-10-29T00:56:31.391Z,33.29
2022-10-29T00:57:31.392Z,33.69
2022-10-29T00:58:31.393Z,33.29
2022-10-29T00:59:31.393Z,33.11
2022-10-29T01:00:31.392Z,33.59
2022-10-29T01:01:31.591Z,33.01
2022-10-29T01:02:31.553Z,33.11
2022-10-29T01:03:31.393Z,33.11
2022-10-29T01:04:31.395Z,33.29
2022-10-29T01:05:31.395Z,33.11
2022-10-29T01:06:31.415Z,33.20
2022-10-29T01:07:31.396Z,33.20
2022-10-29T01:08:31.394Z,33.11
2022-10-29T01:09:31.394Z,33.11
2022-10-29T01:10:31.393Z,33.20
2022-10-29T01:11:31.395Z,33.20
2022-10-29T01:12:31.394Z,33.11
2022-10-29T01:13:31.397Z,33.29
2022-10-29T01:14:31.393Z,33.11
2022-10-29T01:15:31.395Z,33.20
2022-10-29T01:16:31.393Z,33.11
2022-10-29T01:17:31.396Z,33.20
2022-10-29T01:18:31.472Z,33.11
2022-10-29T01:19:31.398Z,33.11
2022-10-29T01:20:31.399Z,33.39
2022-10-29T01:21:31.396Z,33.11
2022-10-29T01:22:31.416Z,33.11
2022-10-29T01:23:31.399Z,33.11
2022-10-29T01:24:31.401Z,33.01
2022-10-29T01:25:31.396Z,33.20
2022-10-29T01:26:31.397Z,33.01
2022-10-29T01:27:31.396Z,33.11
2022-10-29T01:29:31.400Z,33.11
2022-10-29T01:30:31.396Z,33.01
2022-10-29T01:31:31.397Z,33.20
2022-10-29T01:32:31.397Z,33.20
2022-10-29T01:33:31.400Z,33.49
2022-10-29T01:34:31.399Z,33.39
2022-10-29T01:35:31.399Z,33.59
2022-10-29T01:36:31.398Z,33.20
2022-10-29T01:37:31.400Z,33.29
2022-10-29T01:38:31.418Z,33.29
2022-10-29T01:39:31.399Z,32.91
2022-10-29T01:40:31.399Z,33.20
2022-10-29T01:41:31.400Z,32.81
2022-10-29T01:42:31.398Z,32.71
2022-10-29T01:43:31.403Z,33.01
2022-10-29T01:44:31.408Z,33.29
2022-10-29T01:45:31.409Z,33.29
2022-10-29T01:46:31.411Z,33.29
2022-10-29T01:47:31.400Z,33.20
2022-10-29T01:48:33.190Z,33.01
2022-10-29T01:49:31.409Z,33.20
2022-10-29T01:50:31.402Z,33.20
2022-10-29T01:51:31.400Z,33.29
2022-10-29T01:52:31.401Z,33.20
2022-10-29T01:53:31.401Z,33.20
2022-10-29T01:54:31.424Z,33.20
2022-10-29T01:55:31.402Z,33.29
2022-10-29T01:56:31.403Z,33.20
2022-10-29T01:57:31.411Z,33.20
2022-10-29T01:58:31.401Z,33.11
2022-10-29T01:59:35.878Z,33.11
2022-10-29T02:00:31.428Z,33.01
2022-10-29T02:01:31.497Z,33.11
2022-10-29T02:02:31.401Z,33.11
2022-10-29T02:03:31.403Z,33.01
2022-10-29T02:04:31.404Z,33.20
2022-10-29T02:05:31.404Z,33.29
2022-10-29T02:06:31.402Z,33.29
2022-10-29T02:07:31.403Z,33.01
2022-10-29T02:08:31.403Z,32.91
2022-10-29T02:09:31.404Z,33.11
2022-10-29T02:10:31.424Z,33.11
2022-10-29T02:11:31.406Z,33.01
2022-10-29T02:12:31.405Z,33.01
2022-10-29T02:13:31.405Z,32.91
2022-10-29T02:14:31.405Z,33.01
2022-10-29T02:15:31.406Z,33.01
2022-10-29T02:16:31.405Z,33.01
2022-10-29T02:17:31.409Z,33.01
2022-10-29T02:18:31.404Z,32.91
2022-10-29T02:19:31.404Z,32.91
2022-10-29T02:20:31.405Z,33.01
2022-10-29T02:21:31.407Z,32.91
2022-10-29T02:22:31.406Z,32.91
2022-10-29T02:23:31.408Z,32.91
2022-10-29T02:24:31.405Z,32.91
2022-10-29T02:25:31.543Z,32.81
2022-10-29T02:26:31.429Z,32.81
2022-10-29T02:27:31.410Z,32.62
2022-10-29T02:28:31.406Z,32.62
2022-10-29T02:29:31.407Z,32.71
2022-10-29T02:30:31.405Z,32.81
2022-10-29T02:31:31.407Z,32.52
2022-10-29T02:32:31.407Z,32.42
2022-10-29T02:33:31.407Z,32.62
2022-10-29T02:34:31.408Z,32.42
2022-10-29T02:35:31.411Z,32.62
2022-10-29T02:36:31.408Z,32.91
2022-10-29T02:37:31.412Z,32.71
2022-10-29T02:38:31.409Z,32.62
2022-10-29T02:39:31.407Z,32.91
2022-10-29T02:40:31.407Z,32.91
2022-10-29T02:41:31.409Z,32.81
2022-10-29T02:42:31.431Z,32.91
2022-10-29T02:43:31.415Z,32.52
2022-10-29T02:44:31.408Z,32.62
2022-10-29T02:45:31.411Z,32.52
2022-10-29T02:46:31.409Z,32.52
2022-10-29T02:47:31.410Z,32.52
2022-10-29T02:48:31.410Z,32.52
2022-10-29T02:49:31.412Z,32.52
2022-10-29T02:50:31.408Z,32.42
2022-10-29T02:51:31.410Z,32.52
2022-10-29T02:52:31.412Z,32.52
2022-10-29T02:53:31.411Z,32.62
2022-10-29T02:54:31.562Z,32.52
2022-10-29T02:55:31.411Z,32.62
2022-10-29T02:56:31.410Z,32.71
2022-10-29T02:57:31.413Z,32.71
2022-10-29T02:58:31.435Z,32.62
2022-10-29T02:59:31.414Z,32.52
2022-10-29T03:00:31.410Z,32.42
2022-10-29T03:01:31.550Z,32.42
2022-10-29T03:02:31.631Z,32.42
2022-10-29T03:03:31.413Z,32.71
2022-10-29T03:04:31.412Z,32.81
2022-10-29T03:05:31.411Z,32.62
2022-10-29T03:06:31.412Z,32.52
2022-10-29T03:07:31.411Z,32.23
2022-10-29T03:08:31.413Z,32.42
2022-10-29T03:09:31.414Z,32.32
2022-10-29T03:10:31.414Z,32.32
2022-10-29T03:11:31.412Z,32.42
2022-10-29T03:12:31.413Z,32.32
2022-10-29T03:13:31.474Z,32.42
2022-10-29T03:14:31.441Z,32.32
2022-10-29T03:15:31.415Z,32.42
2022-10-29T03:16:31.414Z,32.13
2022-10-29T03:17:31.414Z,32.32
2022-10-29T03:18:31.416Z,32.13
2022-10-29T03:19:31.417Z,32.13
2022-10-29T03:20:31.416Z,32.52
2022-10-29T03:21:31.414Z,32.52
2022-10-29T03:22:31.413Z,32.32
2022-10-29T03:23:31.413Z,32.52
2022-10-29T03:24:31.416Z,32.32
2022-10-29T03:25:31.415Z,32.32
2022-10-29T03:26:31.416Z,32.32
2022-10-29T03:27:31.413Z,32.52
2022-10-29T03:28:31.496Z,32.32
2022-10-29T03:29:31.415Z,32.52
2022-10-29T03:30:31.437Z,32.32
2022-10-29T03:31:31.423Z,32.42
2022-10-29T03:32:31.416Z,32.32
2022-10-29T03:33:31.415Z,32.32
2022-10-29T03:34:31.418Z,32.13
2022-10-29T03:35:31.456Z,32.13
2022-10-29T03:36:31.418Z,32.23
2022-10-29T03:37:31.417Z,32.23
2022-10-29T03:38:31.416Z,32.42
2022-10-29T03:39:31.416Z,32.04
2022-10-29T03:40:31.418Z,32.04
2022-10-29T03:41:31.419Z,32.13
2022-10-29T03:42:31.417Z,32.23
2022-10-29T03:43:31.417Z,32.13
2022-10-29T03:44:31.420Z,32.13
2022-10-29T03:45:31.418Z,32.23
2022-10-29T03:46:31.442Z,32.32
2022-10-29T03:47:31.419Z,32.32
2022-10-29T03:48:31.418Z,32.42
2022-10-29T03:49:31.420Z,32.42
2022-10-29T03:50:31.423Z,32.32
2022-10-29T03:51:31.420Z,32.13
2022-10-29T03:52:31.419Z,32.23
2022-10-29T03:53:31.418Z,32.23
2022-10-29T03:54:31.568Z,32.04
2022-10-29T03:55:31.416Z,32.13
2022-10-29T03:56:31.423Z,32.13
2022-10-29T03:57:31.420Z,32.13
2022-10-29T03:58:31.418Z,32.23
2022-10-29T03:59:31.418Z,32.13
2022-10-29T04:00:31.421Z,31.84
2022-10-29T04:01:31.585Z,32.23
2022-10-29T04:02:31.576Z,32.32
2022-10-29T04:03:31.420Z,31.94
2022-10-29T04:04:31.420Z,32.04
2022-10-29T04:05:31.419Z,31.94
2022-10-29T04:06:31.419Z,32.04
2022-10-29T04:07:31.422Z,32.04
2022-10-29T04:08:31.421Z,31.74
2022-10-29T04:09:31.421Z,31.55
2022-10-29T04:10:31.420Z,31.74
2022-10-29T04:11:31.419Z,31.84
2022-10-29T04:12:31.421Z,31.65
2022-10-29T04:13:31.421Z,31.74
2022-10-29T04:14:31.472Z,31.74
2022-10-29T04:15:31.423Z,31.74
2022-10-29T04:16:31.424Z,31.55
2022-10-29T04:17:31.423Z,31.45
2022-10-29T04:18:31.443Z,31.55
2022-10-29T04:19:31.421Z,31.94
2022-10-29T04:21:58.667Z,31.74
2022-10-29T04:23:36.642Z,31.74
2022-10-29T04:24:32.484Z,31.84
2022-10-29T04:28:17.513Z,31.65
2022-10-29T04:28:42.997Z,31.74
2022-10-29T04:29:31.423Z,31.74
2022-10-29T04:30:31.425Z,31.44
2022-10-29T04:31:31.421Z,31.55
2022-10-29T04:32:31.425Z,31.45
2022-10-29T04:33:31.423Z,31.65
2022-10-29T04:34:31.445Z,31.45
2022-10-29T04:35:31.425Z,31.45
2022-10-29T04:36:31.424Z,31.45
2022-10-29T04:37:31.423Z,31.45
2022-10-29T04:38:31.425Z,31.55
2022-10-29T04:39:31.424Z,31.55
2022-10-29T04:40:31.424Z,31.55
2022-10-29T04:41:31.424Z,31.45
2022-10-29T04:42:31.425Z,31.45
2022-10-29T04:43:31.428Z,31.45
2022-10-29T04:44:31.427Z,31.45
2022-10-29T04:45:31.500Z,31.45
2022-10-29T04:46:31.426Z,31.45
2022-10-29T04:47:31.422Z,31.45
2022-10-29T04:48:31.425Z,31.45
2022-10-29T04:49:31.467Z,31.55
2022-10-29T04:50:31.450Z,31.55
2022-10-29T04:51:31.424Z,31.55
2022-10-29T04:52:31.425Z,31.55
2022-10-29T04:53:31.425Z,31.45
2022-10-29T04:54:31.427Z,31.26
2022-10-29T04:55:31.425Z,31.35
2022-10-29T04:56:31.428Z,31.26
2022-10-29T04:57:31.426Z,31.26
2022-10-29T04:58:31.427Z,31.35
2022-10-29T04:59:31.424Z,31.35
2022-10-29T05:00:31.439Z,31.35
2022-10-29T05:01:31.756Z,31.55
2022-10-29T05:02:31.427Z,31.55
2022-10-29T05:03:31.426Z,31.55
2022-10-29T05:04:31.428Z,31.35
2022-10-29T05:05:31.428Z,31.55
2022-10-29T05:06:31.450Z,31.45
2022-10-29T05:07:31.425Z,31.45
2022-10-29T05:08:31.437Z,31.45
2022-10-29T05:09:31.427Z,31.35
2022-10-29T05:10:31.427Z,31.35
2022-10-29T05:11:31.435Z,31.26
2022-10-29T05:12:31.427Z,31.26
2022-10-29T05:13:31.427Z,31.26
2022-10-29T05:14:31.429Z,31.45
2022-10-29T05:15:31.428Z,31.55
2022-10-29T05:16:31.429Z,31.45
2022-10-29T05:17:31.427Z,31.45
2022-10-29T05:18:31.428Z,31.35
2022-10-29T05:19:31.428Z,31.45
2022-10-29T05:20:31.435Z,31.35
2022-10-29T05:21:31.429Z,31.35
2022-10-29T05:22:31.450Z,31.26
2022-10-29T05:23:31.428Z,31.35
2022-10-29T05:24:31.434Z,31.45
2022-10-29T05:25:31.428Z,31.35
2022-10-29T05:26:31.434Z,31.45
2022-10-29T05:27:31.439Z,31.45
2022-10-29T05:28:31.429Z,31.26
2022-10-29T05:29:31.430Z,31.35
2022-10-29T05:30:31.432Z,31.35
2022-10-29T05:31:31.429Z,31.35
2022-10-29T05:32:31.477Z,31.35
2022-10-29T05:33:31.429Z,31.55
2022-10-29T05:34:31.432Z,31.55
2022-10-29T05:35:31.429Z,31.55
2022-10-29T05:36:31.432Z,31.45
2022-10-29T05:37:31.431Z,31.45
2022-10-29T05:38:31.452Z,31.55
2022-10-29T05:39:31.429Z,31.45
2022-10-29T05:40:31.439Z,31.45
2022-10-29T05:41:31.431Z,31.45
2022-10-29T05:42:31.435Z,31.55
2022-10-29T05:43:31.433Z,31.55
2022-10-29T05:44:31.433Z,31.45
2022-10-29T05:45:31.431Z,31.45
2022-10-29T05:46:31.430Z,31.45
2022-10-29T05:47:31.435Z,31.45
2022-10-29T05:48:31.439Z,31.45
2022-10-29T05:49:31.432Z,31.45
2022-10-29T05:50:31.432Z,31.45
2022-10-29T05:51:31.433Z,31.45
2022-10-29T05:52:31.433Z,31.55
2022-10-29T05:53:31.433Z,31.65
2022-10-29T05:54:31.453Z,31.45
2022-10-29T05:55:31.435Z,31.44
2022-10-29T05:56:31.433Z,31.45
2022-10-29T05:57:31.434Z,31.55
2022-10-29T05:58:31.433Z,31.45
2022-10-29T05:59:33.732Z,31.45
2022-10-29T06:00:31.433Z,31.45
2022-10-29T06:01:31.667Z,31.45
2022-10-29T06:02:31.586Z,31.45
2022-10-29T06:03:31.433Z,31.45
2022-10-29T06:04:31.438Z,31.45
2022-10-29T06:05:31.436Z,31.45
2022-10-29T06:06:31.554Z,31.45
2022-10-29T06:07:31.433Z,31.45
2022-10-29T06:08:31.436Z,31.45
2022-10-29T06:09:31.435Z,31.45
2022-10-29T06:10:31.455Z,31.45
2022-10-29T06:11:31.432Z,31.55
2022-10-29T06:12:34.741Z,31.55
2022-10-29T06:13:31.436Z,31.45
2022-10-29T06:14:31.436Z,31.55
2022-10-29T06:15:31.433Z,31.55
2022-10-29T06:16:31.435Z,31.55
2022-10-29T06:17:31.434Z,31.55
2022-10-29T06:18:31.438Z,31.55
2022-10-29T06:19:31.516Z,31.55
2022-10-29T06:20:31.436Z,31.35
2022-10-29T06:21:31.434Z,31.45
2022-10-29T06:22:31.437Z,31.35
2022-10-29T06:23:31.435Z,31.55
2022-10-29T06:24:31.441Z,31.55
2022-10-29T06:25:31.435Z,31.55
2022-10-29T06:26:31.456Z,31.35
2022-10-29T06:27:31.436Z,31.35
2022-10-29T06:28:34.856Z,31.35
2022-10-29T06:29:31.437Z,31.35
2022-10-29T06:30:31.437Z,31.45
2022-10-29T06:31:31.452Z,31.55
2022-10-29T06:32:31.438Z,31.35
2022-10-29T06:33:31.442Z,31.35
2022-10-29T06:34:31.439Z,31.26
2022-10-29T06:35:31.477Z,31.35
2022-10-29T06:36:31.437Z,31.45
2022-10-29T06:37:31.438Z,31.45
2022-10-29T06:38:31.438Z,31.26
2022-10-29T06:39:31.437Z,31.35
2022-10-29T06:40:31.440Z,31.45
2022-10-29T06:41:31.438Z,31.35
2022-10-29T06:42:31.459Z,31.45
2022-10-29T06:43:31.438Z,31.35
2022-10-29T06:44:31.488Z,31.45
2022-10-29T06:45:31.438Z,31.45
2022-10-29T06:46:31.441Z,31.55
2022-10-29T06:47:31.438Z,31.55
2022-10-29T06:48:31.442Z,31.45
2022-10-29T06:49:31.437Z,31.45
2022-10-29T06:50:31.441Z,31.45
2022-10-29T06:51:31.443Z,31.45
2022-10-29T06:52:31.439Z,31.26
2022-10-29T06:53:31.441Z,31.45
2022-10-29T06:54:31.439Z,31.55
2022-10-29T06:55:31.440Z,31.55
2022-10-29T06:56:31.439Z,33.11
2022-10-29T06:57:31.441Z,32.32
2022-10-29T06:58:31.463Z,33.59
2022-10-29T06:59:31.441Z,32.23
2022-10-29T07:00:31.595Z,35.05
2022-10-29T07:01:31.875Z,33.20
2022-10-29T07:02:31.442Z,32.52
2022-10-29T07:03:31.440Z,32.04
2022-10-29T07:04:31.445Z,31.74
2022-10-29T07:05:31.440Z,31.55
2022-10-29T07:06:31.443Z,31.74
2022-10-29T07:07:31.443Z,32.32
2022-10-29T07:08:31.441Z,32.13
2022-10-29T07:09:31.443Z,31.74
2022-10-29T07:10:31.442Z,31.45
2022-10-29T07:11:31.442Z,31.84
2022-10-29T07:12:31.444Z,31.84
2022-10-29T07:13:31.441Z,31.74
2022-10-29T07:14:31.468Z,31.74
2022-10-29T07:15:31.447Z,31.65
2022-10-29T07:16:31.444Z,31.65
2022-10-29T07:17:31.444Z,31.65
2022-10-29T07:18:31.443Z,31.74
2022-10-29T07:19:31.445Z,31.35
2022-10-29T07:20:31.444Z,31.55
2022-10-29T07:21:31.444Z,31.45
2022-10-29T07:22:34.831Z,31.55
2022-10-29T07:23:31.459Z,31.45
2022-10-29T07:24:31.444Z,31.45
2022-10-29T07:25:31.446Z,31.45
2022-10-29T07:26:31.442Z,31.45
2022-10-29T07:27:31.524Z,31.55
2022-10-29T07:28:31.446Z,31.45
2022-10-29T07:29:31.446Z,31.45
2022-10-29T07:30:31.467Z,31.45
2022-10-29T07:31:31.447Z,31.55
2022-10-29T07:32:31.448Z,31.45
2022-10-29T07:33:31.449Z,31.45
2022-10-29T07:34:31.445Z,31.45
2022-10-29T07:35:31.448Z,31.45
2022-10-29T07:36:31.486Z,31.45
2022-10-29T07:37:31.451Z,31.45
2022-10-29T07:38:31.446Z,31.45
2022-10-29T07:40:31.448Z,31.55
2022-10-29T07:41:31.451Z,31.45
2022-10-29T07:42:31.447Z,31.55
2022-10-29T07:43:31.450Z,31.55
2022-10-29T07:44:31.456Z,31.65
2022-10-29T07:45:31.528Z,31.55
2022-10-29T07:46:31.471Z,31.35
2022-10-29T07:47:31.448Z,31.35
2022-10-29T07:48:31.448Z,31.65
2022-10-29T07:49:31.451Z,31.45
2022-10-29T07:50:31.448Z,31.35
2022-10-29T07:51:31.453Z,31.55
2022-10-29T07:52:31.450Z,31.45
2022-10-29T07:53:31.513Z,31.45
2022-10-29T07:54:31.551Z,31.65
2022-10-29T07:55:31.469Z,31.45
2022-10-29T07:56:31.452Z,31.45
2022-10-29T07:57:31.452Z,31.45
2022-10-29T07:58:31.450Z,31.55
2022-10-29T07:59:31.453Z,31.74
2022-10-29T08:00:31.450Z,31.65
2022-10-29T08:01:31.603Z,31.74
2022-10-29T08:02:31.473Z,31.74
2022-10-29T08:03:31.455Z,31.65
2022-10-29T08:04:31.452Z,31.74
2022-10-29T08:05:31.546Z,31.74
2022-10-29T08:06:31.453Z,31.74
2022-10-29T08:07:31.453Z,31.55
2022-10-29T08:08:31.452Z,31.74
2022-10-29T08:09:31.453Z,31.65
2022-10-29T08:10:31.453Z,31.74
2022-10-29T08:11:31.454Z,31.74
2022-10-29T08:12:31.455Z,31.65
2022-10-29T08:13:31.458Z,31.55
2022-10-29T08:14:31.452Z,31.55
2022-10-29T08:15:31.460Z,31.55
2022-10-29T08:16:31.454Z,31.65
2022-10-29T08:17:31.461Z,31.45
2022-10-29T08:18:31.477Z,31.65
2022-10-29T08:19:31.455Z,31.74
2022-10-29T08:20:31.454Z,31.84
2022-10-29T08:21:31.455Z,31.74
2022-10-29T08:22:31.456Z,31.74
2022-10-29T08:23:31.459Z,31.74
2022-10-29T08:24:31.459Z,31.74
2022-10-29T08:25:31.457Z,31.94
2022-10-29T08:26:31.458Z,31.94
2022-10-29T08:27:31.457Z,31.94
2022-10-29T08:28:35.494Z,31.74
2022-10-29T08:29:31.457Z,32.04
2022-10-29T08:30:31.457Z,31.94
2022-10-29T08:31:31.460Z,32.04
2022-10-29T08:32:31.476Z,32.13
2022-10-29T08:33:31.461Z,31.94
2022-10-29T08:34:31.481Z,32.04
2022-10-29T08:35:31.459Z,31.74
2022-10-29T08:36:31.460Z,32.23
2022-10-29T08:37:31.459Z,32.23
2022-10-29T08:38:31.460Z,31.84
2022-10-29T08:39:31.460Z,32.13
2022-10-29T08:40:31.463Z,32.13
2022-10-29T08:41:31.460Z,32.13
2022-10-29T08:42:31.457Z,32.23
2022-10-29T08:43:31.464Z,32.23
2022-10-29T08:44:31.461Z,32.23
2022-10-29T08:45:31.477Z,32.23
2022-10-29T08:46:31.458Z,32.23
2022-10-29T08:47:31.462Z,32.23
2022-10-29T08:48:31.459Z,32.04
2022-10-29T08:49:31.467Z,32.13
2022-10-29T08:50:31.489Z,32.13
2022-10-29T08:51:31.462Z,32.13
2022-10-29T08:52:31.466Z,32.32
2022-10-29T08:53:33.881Z,32.32
2022-10-29T08:54:32.400Z,32.42
2022-10-29T08:55:31.463Z,32.42
2022-10-29T08:56:31.460Z,32.32
2022-10-29T08:57:31.463Z,32.32
2022-10-29T08:58:31.460Z,32.42
2022-10-29T08:59:31.463Z,32.42
2022-10-29T09:00:31.461Z,32.13
2022-10-29T09:01:31.598Z,32.23
2022-10-29T09:02:31.462Z,32.04
2022-10-29T09:03:31.463Z,32.13
2022-10-29T09:04:31.463Z,32.23
2022-10-29T09:05:31.465Z,32.13
2022-10-29T09:06:31.487Z,32.04
2022-10-29T09:07:31.463Z,32.13
2022-10-29T09:08:31.463Z,32.13
2022-10-29T09:09:31.465Z,32.13
2022-10-29T09:10:31.465Z,32.13
2022-10-29T09:11:31.467Z,32.13
2022-10-29T09:12:31.463Z,32.13
2022-10-29T09:13:31.464Z,31.94
2022-10-29T09:14:31.463Z,31.94
2022-10-29T09:15:31.467Z,32.04
2022-10-29T09:16:31.532Z,32.04
2022-10-29T09:17:31.465Z,32.23
2022-10-29T09:18:31.467Z,32.23
2022-10-29T09:19:31.616Z,32.32
2022-10-29T09:20:31.469Z,32.42
2022-10-29T09:21:31.470Z,32.32
2022-10-29T09:22:31.488Z,32.23
2022-10-29T09:23:31.474Z,32.32
2022-10-29T09:24:31.466Z,32.32
2022-10-29T09:25:31.471Z,32.42
2022-10-29T09:26:31.467Z,32.52
2022-10-29T09:27:31.468Z,32.42
2022-10-29T09:28:31.465Z,32.32
2022-10-29T09:29:31.468Z,32.52
2022-10-29T09:30:31.468Z,32.42
2022-10-29T09:31:31.468Z,32.13
2022-10-29T09:32:31.467Z,32.13
2022-10-29T09:33:31.468Z,32.13
2022-10-29T09:34:31.468Z,32.32
2022-10-29T09:35:31.491Z,32.32
2022-10-29T09:36:31.469Z,32.42
2022-10-29T09:37:31.470Z,32.52
2022-10-29T09:38:31.490Z,32.42
2022-10-29T09:39:34.148Z,32.42
2022-10-29T09:40:31.468Z,32.23
2022-10-29T09:41:31.471Z,32.32
2022-10-29T09:42:31.470Z,32.42
2022-10-29T09:43:31.472Z,32.52
2022-10-29T09:44:31.469Z,32.62
2022-10-29T09:45:31.470Z,32.71
2022-10-29T09:46:31.470Z,32.62
2022-10-29T09:47:31.472Z,32.52
2022-10-29T09:48:31.471Z,32.52
2022-10-29T09:49:31.473Z,32.62
2022-10-29T09:50:31.471Z,32.71
2022-10-29T09:51:31.471Z,32.62
2022-10-29T09:52:31.472Z,32.71
2022-10-29T09:53:31.474Z,32.62
2022-10-29T09:54:31.493Z,32.52
2022-10-29T09:55:31.471Z,32.62
2022-10-29T09:56:31.470Z,32.52
2022-10-29T09:57:31.472Z,32.52
2022-10-29T09:58:31.472Z,32.52
2022-10-29T09:59:31.482Z,32.62
2022-10-29T10:00:31.473Z,32.71
2022-10-29T10:01:31.514Z,32.81
2022-10-29T10:02:31.549Z,32.91
2022-10-29T10:03:31.475Z,32.91
2022-10-29T10:04:31.475Z,32.81
2022-10-29T10:05:31.476Z,32.81
2022-10-29T10:06:31.477Z,32.81
2022-10-29T10:07:31.475Z,32.81
2022-10-29T10:08:31.474Z,32.81
2022-10-29T10:09:31.477Z,32.71
2022-10-29T10:10:31.494Z,32.62
2022-10-29T10:11:31.474Z,32.42
2022-10-29T10:12:31.475Z,32.71
2022-10-29T10:13:31.476Z,32.62
2022-10-29T10:14:31.496Z,32.71
2022-10-29T10:15:31.478Z,32.71
2022-10-29T10:16:31.475Z,32.62
2022-10-29T10:17:31.476Z,32.71
2022-10-29T10:18:31.511Z,32.62
2022-10-29T10:19:31.483Z,32.62
2022-10-29T10:20:31.479Z,32.62
2022-10-29T10:21:31.477Z,32.71
2022-10-29T10:22:31.477Z,32.62
2022-10-29T10:23:31.477Z,32.42
2022-10-29T10:24:31.486Z,32.62
2022-10-29T10:25:31.562Z,32.62
2022-10-29T10:26:31.497Z,32.62
2022-10-29T10:27:31.484Z,32.62
2022-10-29T10:28:31.476Z,32.81
2022-10-29T10:29:31.482Z,32.91
2022-10-29T10:30:31.478Z,32.71
2022-10-29T10:31:31.479Z,32.91
2022-10-29T10:32:31.480Z,32.91
2022-10-29T10:33:31.480Z,33.01
2022-10-29T10:34:31.478Z,32.81
2022-10-29T10:35:31.485Z,33.02
2022-10-29T10:36:31.480Z,32.71
2022-10-29T10:37:31.484Z,33.11
2022-10-29T10:38:31.482Z,32.92
2022-10-29T10:39:31.484Z,33.01
2022-10-29T10:40:31.483Z,32.91
2022-10-29T10:41:31.483Z,33.01
2022-10-29T10:42:31.502Z,33.11
2022-10-29T10:43:31.482Z,32.91
2022-10-29T10:44:31.481Z,33.11
2022-10-29T10:45:31.488Z,33.29
2022-10-29T10:46:31.482Z,33.11
2022-10-29T10:47:31.483Z,32.92
2022-10-29T10:48:33.933Z,33.20
2022-10-29T10:49:31.487Z,33.20
2022-10-29T10:50:31.483Z,33.20
2022-10-29T10:51:31.485Z,33.20
2022-10-29T10:52:31.483Z,33.31
2022-10-29T10:53:31.485Z,33.29
2022-10-29T10:54:31.618Z,33.22
2022-10-29T10:55:31.484Z,33.29
2022-10-29T10:56:31.486Z,33.22
2022-10-29T10:57:31.488Z,33.29
2022-10-29T10:58:31.506Z,33.22
2022-10-29T10:59:31.486Z,33.29
2022-10-29T11:00:31.487Z,33.01
2022-10-29T11:01:31.662Z,33.11
2022-10-29T11:02:31.547Z,33.29
2022-10-29T11:03:31.488Z,33.29
2022-10-29T11:04:31.491Z,33.29
2022-10-29T11:05:31.488Z,33.29
2022-10-29T11:06:31.492Z,33.29
2022-10-29T11:07:31.490Z,33.20
2022-10-29T11:08:31.487Z,33.31
2022-10-29T11:09:31.488Z,33.29
2022-10-29T11:10:31.490Z,33.29
2022-10-29T11:11:31.493Z,33.20
2022-10-29T11:12:31.490Z,33.20
2022-10-29T11:13:31.491Z,33.20
2022-10-29T11:14:31.510Z,33.11
2022-10-29T11:15:31.490Z,33.29
2022-10-29T11:16:31.491Z,32.91
2022-10-29T11:17:31.492Z,33.20
2022-10-29T11:18:31.491Z,33.39
2022-10-29T11:19:34.300Z,33.20
2022-10-29T11:20:31.492Z,33.29
2022-10-29T11:21:31.492Z,33.29
2022-10-29T11:22:31.492Z,33.20
2022-10-29T11:23:31.492Z,33.20
2022-10-29T11:24:31.491Z,33.39
2022-10-29T11:25:31.492Z,33.49
2022-10-29T11:26:31.492Z,33.49
2022-10-29T11:27:31.494Z,33.39
2022-10-29T11:28:31.493Z,33.59
2022-10-29T11:29:31.494Z,33.49
2022-10-29T11:30:31.515Z,33.49
2022-10-29T11:31:31.495Z,33.39
2022-10-29T11:32:31.496Z,33.49
2022-10-29T11:33:31.495Z,33.78
2022-10-29T11:34:31.507Z,33.49
2022-10-29T11:35:31.495Z,33.39
2022-10-29T11:36:31.497Z,33.49
2022-10-29T11:37:31.495Z,33.88
2022-10-29T11:38:31.497Z,33.69
2022-10-29T11:39:31.496Z,33.59
2022-10-29T11:40:31.496Z,33.69
2022-10-29T11:41:31.496Z,33.49
2022-10-29T11:42:31.496Z,33.59
2022-10-29T11:43:31.507Z,33.78
2022-10-29T11:44:31.499Z,33.59
2022-10-29T11:45:31.497Z,33.69
2022-10-29T11:46:31.531Z,33.98
2022-10-29T11:47:31.496Z,33.59
2022-10-29T11:48:31.502Z,33.78
2022-10-29T11:49:31.501Z,33.88
2022-10-29T11:50:31.501Z,33.88
2022-10-29T11:51:31.498Z,33.98
2022-10-29T11:52:34.774Z,34.08
2022-10-29T11:53:31.499Z,33.98
2022-10-29T11:54:31.499Z,33.59
2022-10-29T11:55:31.498Z,34.08
2022-10-29T11:56:31.501Z,33.98
2022-10-29T11:57:31.500Z,33.69
2022-10-29T11:58:34.248Z,33.98
2022-10-29T11:59:31.500Z,33.78
2022-10-29T12:00:31.503Z,33.78
2022-10-29T12:01:31.609Z,33.69
2022-10-29T12:02:31.525Z,33.69
2022-10-29T12:03:31.567Z,33.88
2022-10-29T12:04:31.504Z,33.78
2022-10-29T12:05:31.504Z,33.78
2022-10-29T12:06:31.502Z,33.88
2022-10-29T12:07:31.502Z,33.78
2022-10-29T12:08:31.503Z,33.98
2022-10-29T12:09:31.503Z,33.98
2022-10-29T12:10:31.502Z,33.88
2022-10-29T12:11:31.505Z,33.88
2022-10-29T12:12:31.504Z,33.78
2022-10-29T12:13:31.503Z,33.88
2022-10-29T12:14:31.506Z,33.98
2022-10-29T12:15:31.504Z,34.08
2022-10-29T12:16:31.506Z,33.98
2022-10-29T12:17:31.593Z,34.36
2022-10-29T12:18:31.534Z,33.98
2022-10-29T12:19:31.504Z,34.27
2022-10-29T12:20:31.511Z,34.27
2022-10-29T12:21:31.524Z,34.27
2022-10-29T12:22:31.508Z,34.17
2022-10-29T12:23:31.505Z,34.36
2022-10-29T12:24:31.507Z,34.27
2022-10-29T12:25:31.505Z,34.36
2022-10-29T12:26:31.508Z,34.27
2022-10-29T12:27:31.513Z,34.17
2022-10-29T12:28:31.508Z,34.36
2022-10-29T12:29:31.508Z,34.17
2022-10-29T12:30:31.507Z,34.27
2022-10-29T12:31:31.516Z,34.27
2022-10-29T12:32:31.511Z,34.17
2022-10-29T12:33:31.507Z,34.27
2022-10-29T12:34:31.534Z,34.17
2022-10-29T12:35:31.508Z,34.17
2022-10-29T12:36:31.509Z,34.36
2022-10-29T12:37:31.510Z,34.17
2022-10-29T12:38:31.512Z,34.17
2022-10-29T12:39:31.508Z,34.17
2022-10-29T12:40:31.511Z,34.08
2022-10-29T12:41:31.513Z,34.08
2022-10-29T12:42:31.511Z,34.08
2022-10-29T12:43:31.509Z,33.88
2022-10-29T12:44:31.511Z,33.78
2022-10-29T12:45:31.512Z,33.98
2022-10-29T12:46:31.512Z,34.08
2022-10-29T12:47:31.518Z,34.08
2022-10-29T12:48:31.514Z,33.98
2022-10-29T12:49:31.512Z,33.98
2022-10-29T12:50:31.536Z,34.08
2022-10-29T12:51:31.512Z,34.08
2022-10-29T12:52:31.515Z,34.17
2022-10-29T12:53:31.514Z,34.08
2022-10-29T12:54:31.514Z,34.17
2022-10-29T12:55:31.513Z,34.17
2022-10-29T12:56:31.516Z,34.17
2022-10-29T12:57:31.519Z,34.17
2022-10-29T12:58:31.516Z,34.36